Time;durP1;ratioP1;P1;durP2;ratioP2;P2;SDS_P1;SDS_P2;PMS_P1;PMS_P2;Temp;Humidity;BMP_temperature;BMP_pressure;BME280_temperature;BME280_humidity;BME280_pressure;Samples;Min_cycle;Max_cycle;Signal;HPM_P1;HPM_P2
2023/10/07 00:00:40;;;;;;;7.05;1.33;;;;;;;18.22;93.57;101857.63;7354242;19;20083;-65
2023/10/07 00:03:09;;;;;;;10.02;2.10;;;;;;;18.23;93.87;101862.81;7357611;19;20176;-65
2023/10/07 00:05:38;;;;;;;8.30;1.92;;;;;;;18.19;93.52;101849.97;7358448;19;20026;-65
2023/10/07 00:08:08;;;;;;;10.07;1.85;;;;;;;18.17;93.49;101850.19;7355724;19;20025;-65
2023/10/07 00:10:36;;;;;;;5.68;1.60;;;;;;;18.17;93.72;101854.69;7353317;19;20523;-65
2023/10/07 00:13:13;;;;;;;7.40;1.67;;;;;;;18.16;93.92;101847.69;7352698;19;20038;-65
2023/10/07 00:15:43;;;;;;;4.03;1.60;;;;;;;18.20;93.91;101835.66;7354955;19;20023;-65
2023/10/07 00:20:50;;;;;;;7.18;1.67;;;;;;;18.20;93.58;101812.50;7353185;19;20523;-66
2023/10/07 00:23:22;;;;;;;6.28;1.30;;;;;;;18.19;93.95;101808.19;7359453;19;21137;-65
2023/10/07 00:25:50;;;;;;;6.00;2.25;;;;;;;18.21;93.44;101837.31;7364739;19;20014;-66
2023/10/07 00:28:19;;;;;;;4.93;1.75;;;;;;;18.20;93.27;101828.50;7355011;19;20010;-65
2023/10/07 00:30:46;;;;;;;7.85;1.40;;;;;;;18.20;93.53;101825.84;7360732;19;20049;-66
2023/10/07 00:33:14;;;;;;;4.65;1.40;;;;;;;18.24;93.29;101820.97;7358057;19;20310;-67
2023/10/07 00:35:53;;;;;;;3.97;1.30;;;;;;;18.21;93.09;101824.84;7357630;19;20007;-66
2023/10/07 00:38:23;;;;;;;5.05;1.60;;;;;;;18.18;93.19;101814.53;7357552;19;20587;-65
2023/10/07 00:40:56;;;;;;;5.57;1.38;;;;;;;18.23;94.33;101825.50;7363698;19;20324;-65
2023/10/07 00:43:31;;;;;;;7.82;1.67;;;;;;;18.28;93.93;101831.13;7348009;19;20019;-67
2023/10/07 00:46:10;;;;;;;5.55;1.77;;;;;;;18.29;93.45;101829.25;7359766;19;20014;-65
2023/10/07 00:48:45;;;;;;;6.57;1.45;;;;;;;18.26;93.13;101829.63;7362141;19;20014;-65
2023/10/07 00:51:16;;;;;;;6.53;1.50;;;;;;;18.23;93.04;101822.81;7361042;19;20380;-66
2023/10/07 00:53:53;;;;;;;7.50;2.10;;;;;;;18.20;93.11;101817.84;7362044;19;20022;-68
2023/10/07 00:56:23;;;;;;;7.43;1.30;;;;;;;18.19;92.98;101816.16;7362649;19;20014;-67
2023/10/07 00:58:52;;;;;;;8.38;1.90;;;;;;;18.22;93.99;101820.34;7358046;19;20038;-67
2023/10/07 01:01:20;;;;;;;4.90;1.60;;;;;;;18.26;95.42;101826.97;7361434;19;20014;-66
2023/10/07 01:03:48;;;;;;;10.45;1.83;;;;;;;18.25;93.97;101823.47;7362224;19;20530;-65
2023/10/07 01:06:27;;;;;;;6.85;1.55;;;;;;;18.26;93.33;101833.13;7362060;19;21075;-66
2023/10/07 01:09:10;;;;;;;7.85;1.85;;;;;;;18.25;93.44;101835.94;7361992;19;20018;-68
2023/10/07 01:11:40;;;;;;;3.55;1.48;;;;;;;18.22;93.02;101825.66;7361087;19;20520;-66
2023/10/07 01:14:10;;;;;;;4.72;1.50;;;;;;;18.24;93.45;101827.13;7357363;19;20014;-66
2023/10/07 01:16:41;;;;;;;5.05;1.95;;;;;;;18.26;94.24;101818.97;7362993;19;20035;-66
2023/10/07 01:19:19;;;;;;;7.47;1.50;;;;;;;18.25;94.56;101815.47;7358228;19;20572;-66
2023/10/07 01:21:51;;;;;;;5.57;1.80;;;;;;;18.21;94.08;101802.69;7361726;19;20014;-65
2023/10/07 01:24:33;;;;;;;5.43;1.63;;;;;;;18.21;93.50;101810.69;7358324;19;20007;-67
2023/10/07 01:27:08;;;;;;;5.22;1.40;;;;;;;18.21;93.38;101803.50;7361018;19;20259;-65
2023/10/07 01:29:35;;;;;;;5.72;1.30;;;;;;;18.19;93.44;101802.03;7354719;19;20174;-65
2023/10/07 01:32:12;;;;;;;6.95;1.70;;;;;;;18.19;93.65;101797.53;7360873;19;20550;-66
2023/10/07 01:34:47;;;;;;;9.57;1.60;;;;;;;18.23;93.78;101793.53;7339059;19;20677;-65
2023/10/07 01:37:21;;;;;;;5.38;1.70;;;;;;;18.22;93.61;101796.34;7356664;19;20009;-66
2023/10/07 01:39:52;;;;;;;5.28;1.33;;;;;;;18.21;93.54;101784.03;7356090;19;20019;-64
2023/10/07 01:42:42;;;;;;;3.42;1.40;;;;;;;18.16;93.06;101786.41;7360187;19;20482;-66
2023/10/07 01:45:34;;;;;;;5.13;1.63;;;;;;;18.13;93.67;101790.28;7358929;19;20525;-67
2023/10/07 01:47:57;;;;;;;7.18;1.50;;;;;;;18.12;93.72;101790.44;7358499;19;20018;-67
2023/10/07 01:50:24;;;;;;;4.22;1.63;;;;;;;18.11;94.10;101794.09;7360719;19;20093;-66
2023/10/07 01:52:55;;;;;;;7.20;1.58;;;;;;;18.05;93.55;101790.31;7360882;19;20018;-66
2023/10/07 01:55:27;;;;;;;4.43;1.52;;;;;;;18.01;93.99;101785.53;7360561;19;20028;-67
2023/10/07 01:57:54;;;;;;;;;;;;;;;18.03;94.39;101776.31;7360308;19;20025;-66
2023/10/07 02:03:13;;;;;;;5.07;1.33;;;;;;;17.99;93.98;101751.06;7360467;19;20102;-66
2023/10/07 02:05:41;;;;;;;4.68;1.67;;;;;;;18.02;94.55;101736.56;7360648;19;20913;-66
2023/10/07 02:08:20;;;;;;;6.20;1.80;;;;;;;18.01;94.20;101737.56;7356143;19;20620;-65
2023/10/07 02:10:52;;;;;;;5.53;1.00;;;;;;;18.01;93.74;101748.22;7359549;19;20509;-65
2023/10/07 02:13:20;;;;;;;5.32;1.00;;;;;;;17.95;93.74;101749.78;7354425;19;20043;-66
2023/10/07 02:15:48;;;;;;;4.25;1.10;;;;;;;17.91;93.47;101743.97;7361376;19;20045;-66
2023/10/07 02:18:15;;;;;;;6.82;1.20;;;;;;;17.87;93.61;101737.34;7359715;19;20022;-65
2023/10/07 02:20:52;;;;;;;6.45;1.55;;;;;;;17.86;93.90;101738.34;7360429;19;20491;-65
2023/10/07 02:23:37;;;;;;;6.65;1.15;;;;;;;17.88;94.34;101731.00;7355681;19;20034;-66
2023/10/07 02:26:06;;;;;;;6.63;1.10;;;;;;;17.88;93.96;101728.34;7357282;19;20021;-68
2023/10/07 02:28:34;;;;;;;5.85;0.93;;;;;;;17.92;93.81;101707.53;7356819;19;20014;-68
2023/10/07 02:31:15;;;;;;;8.85;2.15;;;;;;;17.92;93.50;101697.72;7358493;19;20010;-68
2023/10/07 02:33:42;;;;;;;6.18;1.23;;;;;;;17.93;93.22;101704.66;7359966;19;20014;-68
2023/10/07 02:36:27;;;;;;;6.03;1.10;;;;;;;17.92;93.09;101710.19;7358874;19;20031;-68
2023/10/07 02:38:56;;;;;;;6.97;1.33;;;;;;;17.92;93.69;101720.84;7354704;19;20034;-69
2023/10/07 02:41:24;;;;;;;5.63;1.27;;;;;;;17.89;92.97;101726.50;7355705;19;20014;-69
2023/10/07 02:43:51;;;;;;;6.75;1.00;;;;;;;17.86;92.87;101730.38;7353318;19;20502;-70
2023/10/07 02:46:31;;;;;;;3.15;1.13;;;;;;;17.83;93.31;101721.88;7357575;19;20010;-67
2023/10/07 02:49:04;;;;;;;4.10;1.15;;;;;;;17.85;93.56;101706.56;7357342;19;20018;-69
2023/10/07 02:51:39;;;;;;;5.75;0.93;;;;;;;17.85;92.92;101704.75;7359912;19;20393;-69
2023/10/07 02:54:15;;;;;;;5.88;0.90;;;;;;;17.86;92.59;101716.22;7356150;19;20118;-69
2023/10/07 02:56:54;;;;;;;3.63;0.80;;;;;;;17.84;92.18;101718.22;7359114;19;20029;-69
2023/10/07 02:59:36;;;;;;;3.47;0.88;;;;;;;17.88;93.31;101723.00;7330114;19;20025;-70
2023/10/07 03:05:13;;;;;;;4.60;1.70;;;;;;;17.84;91.89;101711.06;7356840;19;20420;-66
2023/10/07 03:07:42;;;;;;;5.00;1.00;;;;;;;17.81;92.25;101715.94;7354720;19;20562;-65
2023/10/07 03:10:18;;;;;;;4.05;0.88;;;;;;;17.83;92.38;101719.22;7353592;19;20490;-66
2023/10/07 03:12:56;;;;;;;6.50;1.02;;;;;;;17.83;92.38;101721.88;7353640;19;20077;-66
2023/10/07 03:18:04;;;;;;;3.83;1.00;;;;;;;17.80;92.10;101731.06;7357064;19;20086;-67
2023/10/07 03:20:31;;;;;;;3.53;0.80;;;;;;;17.78;91.52;101726.91;7355417;19;20102;-68
2023/10/07 03:23:25;;;;;;;6.53;1.33;;;;;;;17.75;91.18;101720.13;7354062;19;20014;-66
2023/10/07 03:28:35;;;;;;;5.10;1.00;;;;;;;17.74;91.12;101717.63;7352507;19;20052;-67
2023/10/07 03:31:08;;;;;;;7.03;1.08;;;;;;;17.71;90.89;101705.53;7355148;19;20495;-66
2023/10/07 03:33:45;;;;;;;2.78;0.80;;;;;;;17.74;90.64;101709.66;7356312;19;20042;-65
2023/10/07 03:39:09;;;;;;;3.75;0.90;;;;;;;17.73;90.06;101710.66;7351806;19;20052;-66
2023/10/07 03:41:55;;;;;;;6.05;0.88;;;;;;;17.72;89.64;101709.84;7356218;19;20014;-65
2023/10/07 03:44:28;;;;;;;4.75;0.70;;;;;;;17.77;90.20;101714.63;7352981;19;20479;-66
2023/10/07 03:46:56;;;;;;;4.50;0.80;;;;;;;17.79;90.27;101729.41;7357859;19;20444;-66
2023/10/07 03:49:33;;;;;;;5.10;0.90;;;;;;;17.76;89.14;101724.47;7353288;19;20017;-65
2023/10/07 03:52:07;;;;;;;4.45;0.77;;;;;;;17.76;89.12;101748.41;7342444;19;20048;-65
2023/10/07 03:54:35;;;;;;;4.03;0.70;;;;;;;17.79;89.34;101739.22;7355508;19;20014;-66
2023/10/07 03:57:02;;;;;;;3.58;0.90;;;;;;;17.84;89.07;101755.50;7367852;19;20015;-66
2023/10/07 03:59:34;;;;;;;4.90;1.00;;;;;;;17.85;89.00;101759.84;7365454;19;20018;-67
2023/10/07 04:02:12;;;;;;;4.80;0.80;;;;;;;17.88;88.79;101757.63;7366891;19;20389;-67
2023/10/07 04:04:42;;;;;;;7.10;0.95;;;;;;;17.90;89.24;101754.81;7372372;19;20018;-67
2023/10/07 04:07:12;;;;;;;8.68;0.98;;;;;;;17.89;89.29;101745.16;7370828;19;20015;-66
2023/10/07 04:09:41;;;;;;;6.10;1.00;;;;;;;17.88;88.79;101754.13;7368352;19;20018;-66
2023/10/07 04:12:08;;;;;;;3.13;1.05;;;;;;;17.90;88.51;101754.81;7368831;19;20515;-66
2023/10/07 04:14:35;;;;;;;6.13;1.00;;;;;;;17.92;88.96;101750.97;7367062;19;20573;-65
2023/10/07 04:17:14;;;;;;;5.63;0.80;;;;;;;17.91;88.65;101746.66;7350051;19;20032;-66
2023/10/07 04:19:53;;;;;;;5.68;1.10;;;;;;;17.92;88.77;101745.66;7367959;19;20022;-66
2023/10/07 04:22:24;;;;;;;5.68;1.40;;;;;;;17.86;88.34;101750.84;7367740;19;20474;-65
2023/10/07 04:24:51;;;;;;;3.70;0.98;;;;;;;17.84;89.00;101742.19;7368234;19;21723;-65
2023/10/07 04:27:21;;;;;;;5.15;1.00;;;;;;;17.82;89.13;101738.91;7368849;19;20021;-65
2023/10/07 04:29:51;;;;;;;5.05;0.90;;;;;;;17.85;88.97;101744.69;7367399;19;20337;-65
2023/10/07 04:32:23;;;;;;;5.97;1.02;;;;;;;17.86;88.69;101742.84;7368287;19;20021;-66
2023/10/07 04:35:37;;;;;;;4.28;0.80;;;;;;;17.85;88.99;101751.84;7370880;19;20248;-66
2023/10/07 04:37:47;;;;;;;4.60;1.08;;;;;;;17.85;89.14;101747.34;7365764;19;20360;-65
2023/10/07 04:42:59;;;;;;;5.43;0.90;;;;;;;17.84;88.81;101747.50;7367803;19;20060;-66
2023/10/07 04:45:48;;;;;;;7.45;1.20;;;;;;;17.82;89.06;101747.72;7369978;19;20014;-65
2023/10/07 04:51:03;;;;;;;5.43;1.25;;;;;;;17.77;89.87;101742.09;7372189;19;20114;-66
2023/10/07 04:53:38;;;;;;;4.47;0.95;;;;;;;17.74;89.60;101742.44;7371614;19;20060;-65
2023/10/07 04:56:10;;;;;;;5.78;1.40;;;;;;;17.72;89.46;101740.97;7365157;19;20014;-66
2023/10/07 04:58:40;;;;;;;7.03;1.57;;;;;;;17.69;89.43;101739.47;7366796;19;20026;-65
2023/10/07 05:01:56;;;;;;;6.45;1.23;;;;;;;17.68;89.63;101731.66;7368712;19;21776;-66
2023/10/07 05:03:58;;;;;;;7.53;1.80;;;;;;;17.70;90.59;101741.13;7368637;19;21197;-66
2023/10/07 05:06:25;;;;;;;9.32;2.00;;;;;;;17.72;90.81;101746.28;7371545;19;20018;-67
2023/10/07 05:08:52;;;;;;;6.72;1.73;;;;;;;17.67;90.16;101738.00;7356919;19;20109;-66
2023/10/07 05:11:19;;;;;;;7.82;1.40;;;;;;;17.64;90.04;101741.00;7354593;19;20018;-67
2023/10/07 05:13:47;;;;;;;6.32;1.75;;;;;;;17.62;90.27;101743.84;7360263;19;20014;-67
2023/10/07 05:16:14;;;;;;;4.88;1.40;;;;;;;17.61;90.61;101742.19;7358659;19;20046;-65
2023/10/07 05:18:42;;;;;;;9.55;2.33;;;;;;;17.62;91.94;101737.69;7361872;19;20014;-65
2023/10/07 05:21:11;;;;;;;7.45;1.50;;;;;;;17.63;91.97;101728.69;7359020;19;20022;-65
2023/10/07 05:23:41;;;;;;;6.10;1.58;;;;;;;17.63;90.98;101729.53;7361604;19;20030;-65
2023/10/07 05:26:09;;;;;;;8.00;2.00;;;;;;;17.63;91.14;101724.19;7361394;19;20011;-66
2023/10/07 05:28:36;;;;;;;7.03;1.73;;;;;;;17.63;90.90;101732.19;7359836;19;20589;-66
2023/10/07 05:31:03;;;;;;;7.63;1.52;;;;;;;17.61;90.81;101742.19;7356635;19;20625;-66
2023/10/07 05:33:35;;;;;;;7.00;1.40;;;;;;;17.58;91.03;101739.84;7361385;19;20039;-66
2023/10/07 05:36:14;;;;;;;3.60;1.30;;;;;;;17.54;91.82;101728.72;7360863;19;20355;-65
2023/10/07 05:38:45;;;;;;;4.40;1.30;;;;;;;17.57;91.43;101732.03;7356949;19;20493;-66
2023/10/07 05:41:14;;;;;;;6.97;1.30;;;;;;;17.58;91.47;101731.84;7356017;19;21096;-65
2023/10/07 05:43:43;;;;;;;3.65;1.42;;;;;;;17.54;91.60;101728.72;7357952;19;20126;-66
2023/10/07 05:46:11;;;;;;;6.03;1.45;;;;;;;17.51;91.35;101723.75;7341196;19;20358;-65
2023/10/07 05:48:40;;;;;;;4.43;1.20;;;;;;;17.48;91.68;101723.25;7355363;19;20552;-66
2023/10/07 05:51:09;;;;;;;5.95;1.80;;;;;;;17.46;91.30;101717.31;7363091;19;20448;-66
2023/10/07 05:53:48;;;;;;;6.55;1.45;;;;;;;17.39;91.63;101725.16;7359501;19;20014;-65
2023/10/07 05:56:15;;;;;;;6.72;1.33;;;;;;;17.37;92.48;101726.34;7358254;19;20019;-66
2023/10/07 05:58:45;;;;;;;7.57;1.50;;;;;;;17.32;92.20;101726.84;7357152;19;20035;-66
2023/10/07 06:01:14;;;;;;;9.30;1.48;;;;;;;17.25;92.18;101733.88;7357290;19;20015;-65
2023/10/07 06:03:42;;;;;;;5.72;1.33;;;;;;;17.22;92.90;101734.22;7360087;19;20026;-65
2023/10/07 06:06:10;;;;;;;7.00;2.10;;;;;;;17.21;93.06;101745.06;7360372;19;20105;-65
2023/10/07 06:08:37;;;;;;;8.82;1.42;;;;;;;17.24;93.77;101753.50;7358344;19;20019;-66
2023/10/07 06:11:04;;;;;;;5.55;1.23;;;;;;;17.27;93.55;101761.13;7356847;19;20398;-64
2023/10/07 06:13:33;;;;;;;5.10;1.50;;;;;;;17.31;93.44;101761.63;7348462;19;20019;-65
2023/10/07 06:16:04;;;;;;;6.13;1.58;;;;;;;17.32;93.16;101768.63;7358774;19;20006;-65
2023/10/07 06:18:34;;;;;;;7.35;1.50;;;;;;;17.27;93.24;101762.97;7358586;19;20331;-66
2023/10/07 06:21:27;;;;;;;8.32;1.92;;;;;;;17.21;93.37;101753.88;7356349;19;21892;-66
2023/10/07 06:23:48;;;;;;;5.47;1.42;;;;;;;17.26;95.08;101754.16;7360978;19;20018;-67
2023/10/07 06:26:16;;;;;;;5.93;1.60;;;;;;;17.30;94.93;101759.97;7357189;19;20053;-65
2023/10/07 06:28:48;;;;;;;8.35;2.13;;;;;;;17.31;94.52;101761.63;7358078;19;20285;-66
2023/10/07 06:31:27;;;;;;;;;;;;;;;17.32;94.19;101771.28;7358352;19;20015;-66
2023/10/07 06:34:03;;;;;;;3.75;1.20;;;;;;;17.23;93.95;101766.97;7359048;19;20270;-64
2023/10/07 06:36:32;;;;;;;8.20;1.90;;;;;;;17.24;94.23;101766.81;7359583;19;20051;-66
2023/10/07 06:39:01;;;;;;;8.25;3.15;;;;;;;17.25;95.08;101770.28;7339842;19;20019;-66
2023/10/07 06:41:29;;;;;;;10.20;1.67;;;;;;;17.26;95.27;101771.97;7353959;19;20366;-65
2023/10/07 06:44:02;;;;;;;5.88;1.88;;;;;;;17.30;95.43;101771.44;7354725;19;20015;-68
2023/10/07 06:46:40;;;;;;;5.18;1.73;;;;;;;17.33;94.81;101775.56;7359664;19;20577;-66
2023/10/07 06:49:18;;;;;;;9.45;2.53;;;;;;;17.32;94.55;101776.59;7353559;19;20089;-66
2023/10/07 06:51:56;;;;;;;5.32;1.67;;;;;;;17.30;94.29;101775.94;7359659;19;20022;-67
2023/10/07 06:54:26;;;;;;;6.53;2.00;;;;;;;17.28;94.45;101768.09;7356781;19;20026;-65
2023/10/07 06:56:54;;;;;;;7.28;2.42;;;;;;;17.35;95.76;101790.38;7356605;19;20014;-67
2023/10/07 06:59:28;;;;;;;7.75;2.28;;;;;;;17.41;95.71;101796.84;7355344;19;20025;-66
2023/10/07 07:01:57;;;;;;;7.40;1.80;;;;;;;17.42;94.89;101790.50;7358594;19;20050;-66
2023/10/07 07:04:25;;;;;;;8.50;1.50;;;;;;;17.42;94.17;101801.97;7337376;19;20018;-68
2023/10/07 07:07:12;;;;;;;8.10;1.70;;;;;;;17.46;93.99;101805.97;7357732;19;20443;-65
2023/10/07 07:09:50;;;;;;;5.43;1.98;;;;;;;17.48;94.00;101809.25;7355363;19;20018;-66
2023/10/07 07:12:21;;;;;;;5.78;1.58;;;;;;;17.51;93.84;101810.75;7355280;19;20483;-66
2023/10/07 07:15:04;;;;;;;6.00;1.65;;;;;;;17.53;93.80;101803.41;7356238;19;21008;-66
2023/10/07 07:17:35;;;;;;;5.18;1.70;;;;;;;17.52;93.43;101807.09;7358592;19;20023;-65
2023/10/07 07:22:35;;;;;;;7.35;1.63;;;;;;;17.46;93.58;101807.78;7355982;19;20102;-67
2023/10/07 07:25:17;;;;;;;7.00;1.65;;;;;;;17.43;93.76;101802.78;7357042;19;20021;-65
2023/10/07 07:27:48;;;;;;;6.78;1.90;;;;;;;17.46;94.18;101811.28;7353550;19;20082;-64
2023/10/07 07:33:12;;;;;;;8.95;1.67;;;;;;;17.59;93.67;101817.84;7354629;19;20105;-66
2023/10/07 07:35:43;;;;;;;7.22;1.83;;;;;;;17.57;93.24;101811.91;7355177;19;20090;-66
2023/10/07 07:40:49;;;;;;;5.28;1.80;;;;;;;17.60;93.34;101814.22;7355034;19;20011;-66
2023/10/07 07:43:19;;;;;;;6.38;2.10;;;;;;;17.67;94.34;101816.03;7350561;19;20011;-66
2023/10/07 07:45:46;;;;;;;8.40;1.98;;;;;;;17.69;93.32;101814.00;7354820;19;20215;-67
2023/10/07 07:48:15;;;;;;;6.55;1.98;;;;;;;17.72;93.25;101823.50;7352213;19;20025;-67
2023/10/07 07:50:43;;;;;;;6.13;1.83;;;;;;;17.80;93.36;101818.94;7353154;19;20011;-66
2023/10/07 07:53:12;;;;;;;4.88;1.70;;;;;;;17.89;92.52;101817.88;7355492;19;20016;-65
2023/10/07 07:55:46;;;;;;;6.15;1.27;;;;;;;17.95;92.01;101824.34;7351741;19;20521;-64
2023/10/07 07:58:13;;;;;;;9.10;2.40;;;;;;;17.99;91.77;101822.97;7341715;19;20093;-66
2023/10/07 08:00:44;;;;;;;7.45;2.05;;;;;;;18.03;91.94;101823.47;7352752;19;20082;-65
2023/10/07 08:03:16;;;;;;;8.10;2.30;;;;;;;18.10;92.20;101821.75;7358097;19;20014;-66
2023/10/07 08:05:43;;;;;;;6.40;1.65;;;;;;;18.13;91.82;101824.06;7357244;19;20018;-65
2023/10/07 08:08:25;;;;;;;7.05;1.50;;;;;;;18.16;91.41;101826.38;7354218;19;20038;-65
2023/10/07 08:10:54;;;;;;;7.10;1.80;;;;;;;18.20;91.49;101830.31;7352846;19;20052;-66
2023/10/07 08:13:23;;;;;;;6.00;1.80;;;;;;;18.23;91.53;101828.16;7352132;19;20595;-65
2023/10/07 08:15:51;;;;;;;10.27;1.75;;;;;;;18.23;90.90;101822.00;7354394;19;20024;-65
2023/10/07 08:18:31;;;;;;;5.20;1.80;;;;;;;18.31;91.36;101836.06;7355046;19;20026;-66
2023/10/07 08:21:08;;;;;;;7.85;1.73;;;;;;;18.33;91.72;101839.41;7352571;19;20021;-67
2023/10/07 08:23:40;;;;;;;6.75;2.03;;;;;;;18.36;91.30;101827.53;7338246;19;20186;-66
2023/10/07 08:26:11;;;;;;;4.93;1.55;;;;;;;18.42;91.17;101828.66;7352998;19;20236;-66
2023/10/07 08:31:16;;;;;;;10.55;2.25;;;;;;;18.50;90.28;101837.41;7355559;19;20050;-66
2023/10/07 08:33:53;;;;;;;7.35;1.65;;;;;;;18.52;90.16;101840.75;7353080;19;20627;-65
2023/10/07 08:36:28;;;;;;;6.85;1.77;;;;;;;18.55;90.02;101836.91;7355500;19;20060;-65
2023/10/07 08:38:59;;;;;;;5.85;1.80;;;;;;;18.56;90.07;101847.41;7351682;19;20014;-65
2023/10/07 08:41:28;;;;;;;9.63;1.90;;;;;;;18.55;90.15;101829.75;7354086;19;20064;-65
2023/10/07 08:44:05;;;;;;;6.93;1.83;;;;;;;18.58;90.04;101837.41;7348272;19;20359;-65
2023/10/07 08:46:39;;;;;;;7.13;1.67;;;;;;;18.64;90.53;101831.31;7359845;19;20019;-65
2023/10/07 08:49:13;;;;;;;5.65;1.88;;;;;;;18.66;89.94;101828.47;7340167;19;21806;-65
2023/10/07 08:51:42;;;;;;;8.13;2.88;;;;;;;18.74;90.32;101829.22;7359020;19;20031;-65
2023/10/07 08:54:11;;;;;;;5.57;1.88;;;;;;;18.75;89.41;101830.06;7362598;19;20082;-66
2023/10/07 08:56:40;;;;;;;7.22;2.47;;;;;;;18.80;89.46;101830.34;7360849;19;20006;-65
2023/10/07 08:59:08;;;;;;;7.55;1.77;;;;;;;18.83;88.80;101835.31;7356596;19;20018;-65
2023/10/07 09:01:35;;;;;;;6.05;1.55;;;;;;;18.89;89.11;101834.59;7361068;19;20440;-65
2023/10/07 09:04:07;;;;;;;5.55;1.40;;;;;;;18.95;88.88;101833.84;7360984;19;20044;-67
2023/10/07 09:06:45;;;;;;;;;;;;;;;19.01;88.16;101837.63;7364389;19;20277;-66
2023/10/07 09:09:12;;;;;;;5.95;2.08;;;;;;;19.03;88.72;101843.63;7355523;19;19919;-66
2023/10/07 09:11:40;;;;;;;6.95;1.88;;;;;;;19.04;87.34;101846.13;7362620;19;20014;-66
2023/10/07 09:14:10;;;;;;;9.07;2.20;;;;;;;19.06;87.29;101857.41;7355993;19;20010;-66
2023/10/07 09:16:42;;;;;;;6.88;1.83;;;;;;;19.11;87.30;101844.34;7341977;19;20332;-65
2023/10/07 09:19:15;;;;;;;8.90;2.22;;;;;;;19.16;87.13;101839.28;7359137;19;20033;-66
2023/10/07 09:21:46;;;;;;;7.40;2.30;;;;;;;19.23;86.74;101842.91;7359016;19;20021;-67
2023/10/07 09:24:26;;;;;;;6.65;2.08;;;;;;;19.30;86.94;101850.16;7358329;19;20832;-67
2023/10/07 09:26:56;;;;;;;6.20;1.95;;;;;;;19.37;85.55;101857.25;7360985;19;20065;-65
2023/10/07 09:29:24;;;;;;;5.90;1.60;;;;;;;19.43;86.11;101855.66;7358069;19;20476;-66
2023/10/07 09:32:04;;;;;;;6.70;1.92;;;;;;;19.46;85.47;101858.00;7362734;19;20042;-66
2023/10/07 09:34:44;;;;;;;6.25;1.83;;;;;;;19.48;85.65;101856.81;7358587;19;20085;-66
2023/10/07 09:37:13;;;;;;;8.20;2.08;;;;;;;19.56;85.49;101858.53;7359807;19;20011;-66
2023/10/07 09:42:47;;;;;;;6.50;2.00;;;;;;;19.64;85.51;101869.97;7341958;19;20018;-67
2023/10/07 09:45:17;;;;;;;6.22;2.38;;;;;;;19.70;84.88;101865.72;7355203;19;20126;-65
2023/10/07 09:47:44;;;;;;;11.95;1.73;;;;;;;19.78;84.57;101864.78;7357011;19;20018;-66
2023/10/07 09:53:14;;;;;;;4.38;1.50;;;;;;;19.84;82.69;101864.84;7355945;19;20010;-66
2023/10/07 09:56:11;;;;;;;5.00;1.83;;;;;;;19.83;83.36;101863.19;7360907;19;20070;-65
2023/10/07 09:59:03;;;;;;;5.35;1.65;;;;;;;19.89;83.57;101861.63;7357995;19;20019;-66
2023/10/07 10:01:38;;;;;;;8.30;2.38;;;;;;;19.92;83.76;101856.72;7349232;19;20010;-65
2023/10/07 10:04:36;;;;;;;5.35;2.08;;;;;;;19.93;82.94;101871.72;7357964;19;20056;-65
2023/10/07 10:07:18;;;;;;;8.30;2.40;;;;;;;19.97;82.29;101869.50;7347199;19;20003;-65
2023/10/07 10:10:05;;;;;;;4.45;1.70;;;;;;;20.00;82.52;101869.16;7358047;19;20285;-65
2023/10/07 10:13:07;;;;;;;6.18;1.65;;;;;;;20.05;82.30;101867.56;7355558;19;20014;-65
2023/10/07 10:15:50;;;;;;;6.60;2.22;;;;;;;20.09;82.10;101870.69;7357492;19;20555;-66
2023/10/07 10:18:35;;;;;;;6.07;1.88;;;;;;;20.14;81.83;101870.94;7355654;19;20331;-66
2023/10/07 10:21:04;;;;;;;8.80;2.67;;;;;;;20.20;81.59;101880.88;7358362;19;20093;-65
2023/10/07 10:23:35;;;;;;;8.23;2.53;;;;;;;20.25;81.73;101869.59;7359734;19;20130;-66
2023/10/07 10:26:22;;;;;;;7.32;2.13;;;;;;;20.28;81.92;101866.53;7361589;19;20475;-65
2023/10/07 10:29:03;;;;;;;4.53;1.88;;;;;;;20.37;82.58;101866.25;7353765;19;20146;-65
2023/10/07 10:31:32;;;;;;;4.97;1.63;;;;;;;20.45;81.60;101874.16;7352670;19;20574;-66
2023/10/07 10:34:14;;;;;;;12.85;2.17;;;;;;;20.52;81.02;101868.06;7340493;19;21179;-66
2023/10/07 10:36:43;;;;;;;6.65;2.22;;;;;;;20.59;80.13;101863.56;7356327;19;20021;-65
2023/10/07 10:39:22;;;;;;;6.43;2.17;;;;;;;20.65;79.28;101870.81;7355468;19;20023;-65
2023/10/07 10:41:56;;;;;;;4.57;1.55;;;;;;;20.72;81.30;101867.19;7355498;19;20022;-66
2023/10/07 10:44:23;;;;;;;4.38;1.33;;;;;;;20.76;79.70;101868.47;7352072;19;21626;-66
2023/10/07 10:46:51;;;;;;;6.32;2.17;;;;;;;20.80;79.38;101864.38;7353079;19;21292;-66
2023/10/07 10:49:24;;;;;;;8.30;1.90;;;;;;;20.83;77.73;101866.66;7355648;19;20018;-65
2023/10/07 10:51:55;;;;;;;7.60;1.67;;;;;;;20.86;76.83;101871.63;7351568;19;20026;-66
2023/10/07 10:54:23;;;;;;;5.07;1.63;;;;;;;20.94;77.01;101865.28;7354515;19;20086;-66
2023/10/07 10:56:58;;;;;;;6.25;1.65;;;;;;;20.99;77.29;101867.38;7355977;19;20010;-65
2023/10/07 10:59:55;;;;;;;6.53;1.63;;;;;;;21.04;76.25;101854.22;7341305;19;20018;-66
2023/10/07 11:02:23;;;;;;;8.60;1.95;;;;;;;21.08;76.49;101852.84;7354333;19;21078;-66
2023/10/07 11:04:52;;;;;;;4.97;1.67;;;;;;;21.16;77.22;101863.41;7354502;19;20011;-67
2023/10/07 11:07:24;;;;;;;6.97;1.67;;;;;;;21.21;77.00;101858.28;7356619;19;20792;-65
2023/10/07 11:09:54;;;;;;;6.35;1.88;;;;;;;21.23;77.15;101870.44;7356342;19;20006;-66
2023/10/07 11:12:28;;;;;;;6.07;1.90;;;;;;;21.27;76.56;101866.38;7354456;19;20722;-66
2023/10/07 11:15:13;;;;;;;6.80;1.80;;;;;;;21.29;75.73;101860.78;7353094;19;20033;-67
2023/10/07 11:17:41;;;;;;;6.63;2.17;;;;;;;21.30;75.30;101854.41;7351770;19;20018;-65
2023/10/07 11:20:12;;;;;;;4.10;1.65;;;;;;;21.31;75.43;101861.44;7356994;19;20011;-66
2023/10/07 11:22:44;;;;;;;5.38;1.73;;;;;;;21.36;74.88;101855.50;7354258;19;20067;-66
2023/10/07 11:25:14;;;;;;;7.03;1.60;;;;;;;21.37;74.37;101859.81;7354977;19;20011;-66
2023/10/07 11:27:46;;;;;;;6.72;3.08;;;;;;;21.43;74.90;101861.72;7335162;19;20141;-66
2023/10/07 11:30:17;;;;;;;5.80;2.30;;;;;;;21.50;74.28;101860.69;7355833;19;20014;-65
2023/10/07 11:32:44;;;;;;;3.95;1.70;;;;;;;21.54;72.75;101861.13;7356885;19;20077;-65
2023/10/07 11:35:32;;;;;;;8.13;2.00;;;;;;;21.63;72.92;101860.78;7357918;19;20027;-66
2023/10/07 11:38:02;;;;;;;12.07;2.67;;;;;;;21.70;71.82;101850.06;7353381;19;20034;-65
2023/10/07 11:40:32;;;;;;;4.70;1.95;;;;;;;21.76;71.32;101862.66;7357361;19;20529;-65
2023/10/07 11:43:04;;;;;;;5.80;2.13;;;;;;;21.84;70.79;101861.69;7353839;19;20015;-65
2023/10/07 11:45:32;;;;;;;6.85;1.65;;;;;;;21.89;69.37;101864.59;7353294;19;21918;-66
2023/10/07 11:47:59;;;;;;;4.97;1.77;;;;;;;21.88;68.97;101858.41;7351637;19;21412;-66
2023/10/07 11:50:27;;;;;;;5.88;1.83;;;;;;;21.88;68.78;101853.03;7354423;19;20449;-66
2023/10/07 11:53:00;;;;;;;8.85;1.45;;;;;;;21.94;68.80;101849.56;7335120;19;20066;-66
2023/10/07 11:55:27;;;;;;;4.40;1.55;;;;;;;21.99;69.34;101849.78;7351971;19;20022;-65
2023/10/07 11:57:54;;;;;;;6.30;1.92;;;;;;;22.04;69.96;101851.88;7354348;19;20595;-66
2023/10/07 12:00:27;;;;;;;8.40;2.20;;;;;;;22.08;69.85;101840.53;7350936;19;20505;-66
2023/10/07 12:02:58;;;;;;;7.13;2.30;;;;;;;22.13;70.46;101847.97;7351961;19;20368;-65
2023/10/07 12:05:29;;;;;;;5.05;2.00;;;;;;;22.13;70.53;101840.75;7354977;19;20045;-66
2023/10/07 12:08:04;;;;;;;8.52;2.28;;;;;;;22.17;70.20;101847.34;7354222;19;20102;-66
2023/10/07 12:10:36;;;;;;;7.80;2.35;;;;;;;22.22;70.39;101848.59;7353438;19;20022;-66
2023/10/07 12:13:07;;;;;;;7.45;2.95;;;;;;;22.23;69.80;101848.38;7349939;19;20018;-66
2023/10/07 12:15:34;;;;;;;8.07;1.70;;;;;;;22.28;69.75;101837.03;7353356;19;20018;-65
2023/10/07 12:18:06;;;;;;;;;;;;;;;22.32;68.88;101840.97;7349936;19;20134;-65
2023/10/07 12:20:34;;;;;;;8.80;2.03;;;;;;;22.31;68.28;101837.47;7356804;19;20228;-66
2023/10/07 12:23:03;;;;;;;10.25;2.20;;;;;;;22.36;68.76;101834.97;7359138;19;20040;-65
2023/10/07 12:25:31;;;;;;;4.97;1.35;;;;;;;22.42;70.10;101839.53;7361461;19;20018;-67
2023/10/07 12:27:57;;;;;;;7.50;2.70;;;;;;;22.46;68.86;101840.75;7358152;19;20022;-65
2023/10/07 12:30:26;;;;;;;5.32;1.90;;;;;;;22.47;68.47;101846.97;7359190;19;20039;-67